Time;durP1;ratioP1;P1;durP2;ratioP2;P2;SDS_P1;SDS_P2;PMS_P1;PMS_P2;Temp;Humidity;BMP_temperature;BMP_pressure;BME280_temperature;BME280_humidity;BME280_pressure;Samples;Min_cycle;Max_cycle;Signal;HPM_P1;HPM_P2
2023/04/15 00:00:08;;;;;;;8.95;3.60;;;7.30;99.90;;;;;;5009341;28;20619;-70
2023/04/15 00:02:34;;;;;;;8.55;3.55;;;7.30;99.90;;;;;;5029582;28;20076;-71
2023/04/15 00:05:00;;;;;;;9.98;4.03;;;7.20;99.90;;;;;;5030641;28;20083;-70
2023/04/15 00:07:26;;;;;;;9.07;3.60;;;7.20;99.90;;;;;;5033552;28;20053;-70
2023/04/15 00:09:54;;;;;;;11.93;4.03;;;7.10;99.90;;;;;;5036142;28;20061;-70
2023/04/15 00:12:20;;;;;;;10.70;4.05;;;7.10;99.90;;;;;;5047394;28;20061;-70
2023/04/15 00:14:46;;;;;;;10.40;4.05;;;7.00;99.90;;;;;;5031350;28;20080;-70
2023/04/15 00:17:12;;;;;;;11.02;3.60;;;7.00;99.90;;;;;;5032663;28;20048;-70
2023/04/15 00:19:39;;;;;;;9.48;3.72;;;7.10;99.90;;;;;;5031279;28;20092;-71
2023/04/15 00:22:05;;;;;;;12.73;3.65;;;6.90;99.90;;;;;;5018401;28;20346;-70
2023/04/15 00:24:32;;;;;;;7.45;3.65;;;6.80;99.90;;;;;;5046515;28;20062;-70
2023/04/15 00:26:58;;;;;;;12.70;4.15;;;6.80;99.90;;;;;;5040029;28;20041;-71
2023/04/15 00:29:24;;;;;;;11.88;4.18;;;6.80;99.90;;;;;;5027471;28;20119;-70
2023/04/15 00:31:50;;;;;;;12.77;4.38;;;6.70;99.90;;;;;;5034125;28;20052;-70
2023/04/15 00:34:16;;;;;;;10.45;4.68;;;6.70;99.90;;;;;;5021397;28;20375;-71
2023/04/15 00:36:42;;;;;;;11.10;4.90;;;7.00;99.90;;;;;;5041357;28;20130;-70
2023/04/15 00:39:08;;;;;;;13.00;4.55;;;6.60;99.90;;;;;;5009504;28;20056;-71
2023/04/15 00:41:34;;;;;;;10.10;4.20;;;6.60;99.90;;;;;;5030232;28;20044;-71
2023/04/15 00:44:01;;;;;;;10.23;4.55;;;6.50;99.90;;;;;;5031542;28;20052;-71
2023/04/15 00:46:29;;;;;;;12.15;4.75;;;6.50;99.90;;;;;;5035903;28;20048;-71
2023/04/15 00:48:56;;;;;;;11.10;4.50;;;6.50;99.90;;;;;;5048719;28;20057;-71
2023/04/15 00:51:22;;;;;;;10.20;3.90;;;6.40;99.90;;;;;;5031366;28;20048;-71
2023/04/15 00:53:47;;;;;;;12.82;4.45;;;6.40;99.90;;;;;;5027698;28;20116;-71
2023/04/15 00:56:13;;;;;;;13.43;4.38;;;6.40;99.90;;;;;;5030421;28;20450;-71
2023/04/15 00:58:39;;;;;;;11.57;3.95;;;6.40;99.90;;;;;;5030574;28;20150;-72
2023/04/15 01:01:05;;;;;;;10.27;4.72;;;6.30;99.90;;;;;;5034742;28;20639;-71
2023/04/15 01:03:31;;;;;;;10.77;4.72;;;6.40;99.90;;;;;;5032682;28;20063;-71
2023/04/15 01:05:59;;;;;;;13.20;4.50;;;6.30;99.90;;;;;;5028863;28;20048;-71
2023/04/15 01:08:28;;;;;;;11.13;4.38;;;6.20;99.90;;;;;;5035945;28;20247;-71
2023/04/15 01:11:01;;;;;;;10.15;5.05;;;6.30;99.90;;;;;;5019872;28;20048;-71
2023/04/15 01:13:30;;;;;;;12.30;5.32;;;6.20;99.90;;;;;;5031180;28;20141;-71
2023/04/15 01:15:56;;;;;;;11.88;5.13;;;6.20;99.90;;;;;;5041828;28;20053;-71
2023/04/15 01:18:22;;;;;;;13.27;5.78;;;6.20;99.90;;;;;;5029788;28;20075;-71
2023/04/15 01:20:48;;;;;;;10.80;5.70;;;6.50;99.90;;;;;;5034508;28;20064;-71
2023/04/15 01:23:15;;;;;;;10.32;5.10;;;6.20;99.90;;;;;;5038842;28;20176;-73
2023/04/15 01:25:43;;;;;;;11.45;5.22;;;6.10;99.90;;;;;;5012111;28;20091;-73
2023/04/15 01:28:09;;;;;;;14.07;5.53;;;6.10;99.90;;;;;;5041588;28;20048;-73
2023/04/15 01:30:35;;;;;;;9.40;5.05;;;6.10;99.90;;;;;;5044168;28;20082;-73
2023/04/15 01:33:01;;;;;;;11.45;5.05;;;6.50;99.90;;;;;;5035508;28;20677;-73
2023/04/15 01:35:27;;;;;;;12.30;5.50;;;6.00;99.90;;;;;;5040968;28;20075;-73
2023/04/15 01:38:03;;;;;;;10.98;5.53;;;6.00;99.90;;;;;;5031420;28;20045;-73
2023/04/15 01:40:29;;;;;;;12.18;5.43;;;5.90;99.90;;;;;;5015320;28;20049;-73
2023/04/15 01:42:55;;;;;;;11.32;5.10;;;5.90;99.90;;;;;;5041235;28;20141;-73
2023/04/15 01:45:21;;;;;;;11.45;5.90;;;6.40;99.90;;;;;;5023814;28;20040;-73
2023/04/15 01:47:48;;;;;;;10.48;5.30;;;5.90;99.90;;;;;;5034177;28;20524;-73
2023/04/15 01:50:14;;;;;;;11.50;5.35;;;6.00;99.90;;;;;;5025360;28;20045;-73
2023/04/15 01:52:40;;;;;;;10.38;5.18;;;5.90;99.90;;;;;;5009084;28;20052;-73
2023/04/15 01:55:07;;;;;;;11.68;5.80;;;5.80;99.90;;;;;;5023520;28;20048;-73
2023/04/15 01:57:33;;;;;;;13.57;5.90;;;5.80;99.90;;;;;;5037445;28;20065;-73
2023/04/15 01:59:59;;;;;;;12.40;5.72;;;5.80;99.90;;;;;;5037412;28;20065;-73
2023/04/15 02:02:24;;;;;;;13.38;5.78;;;5.80;99.90;;;;;;5024520;28;20972;-73
2023/04/15 02:04:50;;;;;;;14.05;5.85;;;5.70;99.90;;;;;;5034531;28;20178;-73
2023/04/15 02:07:16;;;;;;;12.38;6.10;;;5.70;99.90;;;;;;5032752;28;20053;-72
2023/04/15 02:09:42;;;;;;;14.18;6.22;;;5.60;99.90;;;;;;5025281;28;20084;-73
2023/04/15 02:12:08;;;;;;;11.98;5.80;;;5.60;99.90;;;;;;5007876;28;20399;-72
2023/04/15 02:14:34;;;;;;;10.98;6.07;;;5.60;99.90;;;;;;5012259;28;20041;-73
2023/04/15 02:17:06;;;;;;;14.38;6.10;;;5.60;99.90;;;;;;5036110;28;20045;-73
2023/04/15 02:19:34;;;;;;;11.95;6.07;;;5.60;99.90;;;;;;5010454;28;20819;-73
2023/04/15 02:22:00;;;;;;;12.45;6.15;;;5.60;99.90;;;;;;5036996;28;20069;-73
2023/04/15 02:24:27;;;;;;;12.55;6.18;;;5.50;99.90;;;;;;5031598;28;20098;-74
2023/04/15 02:26:52;;;;;;;13.65;6.47;;;5.50;99.90;;;;;;5035757;28;20052;-72
2023/04/15 02:29:18;;;;;;;10.05;5.72;;;5.50;99.90;;;;;;5051142;28;20056;-73
2023/04/15 02:31:44;;;;;;;11.68;6.50;;;5.50;99.90;;;;;;5043739;28;20134;-74
2023/04/15 02:34:10;;;;;;;16.13;6.38;;;5.40;99.90;;;;;;5042263;28;20091;-73
2023/04/15 02:36:36;;;;;;;13.25;6.22;;;5.40;99.90;;;;;;5045645;28;20592;-73
2023/04/15 02:39:05;;;;;;;11.30;5.43;;;5.40;99.90;;;;;;5037112;28;20130;-72
2023/04/15 02:41:30;;;;;;;11.38;5.35;;;5.40;99.90;;;;;;5031559;28;20044;-73
2023/04/15 02:43:56;;;;;;;10.13;5.68;;;5.30;99.90;;;;;;5020127;28;20040;-72
2023/04/15 02:46:22;;;;;;;13.82;6.47;;;5.30;99.90;;;;;;5051356;28;20045;-72
2023/04/15 02:48:52;;;;;;;12.52;6.80;;;5.30;99.90;;;;;;5048072;28;20104;-73
2023/04/15 02:51:21;;;;;;;13.45;6.25;;;5.30;99.90;;;;;;5020016;28;20106;-72
2023/04/15 02:53:47;;;;;;;12.10;6.43;;;5.20;99.90;;;;;;5033094;28;20040;-73
2023/04/15 02:56:14;;;;;;;13.48;6.43;;;5.20;99.90;;;;;;5033918;28;20045;-73
2023/04/15 02:58:41;;;;;;;14.02;6.70;;;5.20;99.90;;;;;;5036621;28;20032;-72
2023/04/15 03:01:07;;;;;;;10.23;5.95;;;5.20;99.90;;;;;;5037024;28;20049;-73
2023/04/15 03:03:33;;;;;;;12.77;6.88;;;5.20;99.90;;;;;;5011978;28;20037;-73
2023/04/15 03:05:59;;;;;;;12.25;6.47;;;5.10;99.90;;;;;;5029730;28;20063;-72
2023/04/15 03:08:25;;;;;;;12.05;6.75;;;5.10;99.90;;;;;;5022423;28;20052;-73
2023/04/15 03:10:51;;;;;;;11.45;6.22;;;5.00;99.90;;;;;;5039137;28;20095;-72
2023/04/15 03:13:18;;;;;;;11.70;6.25;;;5.10;99.90;;;;;;5015042;28;20130;-72
2023/04/15 03:15:47;;;;;;;15.30;7.38;;;5.00;99.90;;;;;;5019537;28;20516;-73
2023/04/15 03:18:13;;;;;;;15.77;8.38;;;5.70;99.90;;;;;;5034630;28;20048;-73
2023/04/15 03:20:38;;;;;;;17.73;9.48;;;5.00;99.90;;;;;;5048660;28;20044;-72
2023/04/15 03:23:04;;;;;;;19.60;8.43;;;4.90;99.90;;;;;;5033052;28;20520;-73
2023/04/15 03:25:30;;;;;;;15.80;7.85;;;4.90;99.90;;;;;;5009863;28;20178;-72
2023/04/15 03:27:56;;;;;;;13.57;7.82;;;4.90;99.90;;;;;;5045039;28;20044;-73
2023/04/15 03:30:21;;;;;;;14.85;8.48;;;4.90;99.90;;;;;;5036700;28;20115;-72
2023/04/15 03:32:47;;;;;;;18.38;8.48;;;4.90;99.90;;;;;;5045427;28;20037;-73
2023/04/15 03:35:13;;;;;;;15.10;8.23;;;4.90;99.90;;;;;;5052415;28;20367;-75
2023/04/15 03:37:38;;;;;;;14.02;8.60;;;5.40;99.90;;;;;;5035856;28;20049;-73
2023/04/15 03:40:04;;;;;;;15.52;8.25;;;4.80;99.90;;;;;;5044933;28;20551;-72
2023/04/15 03:42:30;;;;;;;14.77;8.30;;;4.80;99.90;;;;;;5036391;28;20045;-72
2023/04/15 03:44:56;;;;;;;14.93;8.57;;;4.80;99.90;;;;;;5038667;28;20127;-73
2023/04/15 03:47:22;;;;;;;18.88;8.90;;;4.70;99.90;;;;;;5036533;28;20056;-72
2023/04/15 03:49:47;;;;;;;13.50;8.13;;;4.70;99.90;;;;;;5029599;28;20136;-72
2023/04/15 03:52:13;;;;;;;15.73;9.05;;;4.70;99.90;;;;;;5010956;28;20486;-72
2023/04/15 03:54:39;;;;;;;15.15;8.30;;;4.70;99.90;;;;;;5044793;28;20043;-72
2023/04/15 03:57:04;;;;;;;16.30;8.85;;;4.60;99.90;;;;;;5035979;28;20044;-72
2023/04/15 03:59:30;;;;;;;15.88;8.80;;;4.60;99.90;;;;;;5037269;28;20124;-72
2023/04/15 04:01:56;;;;;;;16.55;9.93;;;4.90;99.90;;;;;;5030297;28;20072;-72
2023/04/15 04:04:21;;;;;;;15.77;9.88;;;4.60;99.90;;;;;;5046389;28;20233;-72
2023/04/15 04:06:47;;;;;;;14.80;9.18;;;4.60;99.90;;;;;;5044891;28;20045;-72
2023/04/15 04:09:13;;;;;;;17.55;10.05;;;4.60;99.90;;;;;;5029123;28;20063;-71
2023/04/15 04:11:38;;;;;;;19.27;10.10;;;4.60;99.90;;;;;;5037589;28;20106;-72
2023/04/15 04:14:04;;;;;;;16.50;10.15;;;4.60;99.90;;;;;;5041967;28;20047;-72
2023/04/15 04:16:30;;;;;;;19.33;10.45;;;4.60;99.90;;;;;;5034091;28;20751;-72
2023/04/15 04:18:55;;;;;;;18.23;10.35;;;4.60;99.90;;;;;;5015759;28;20045;-72
2023/04/15 04:21:21;;;;;;;16.10;9.55;;;4.60;99.90;;;;;;5022103;28;20041;-72
2023/04/15 04:23:47;;;;;;;17.05;10.30;;;4.60;99.90;;;;;;5026286;28;20091;-72
2023/04/15 04:26:13;;;;;;;16.42;9.52;;;5.30;99.90;;;;;;5042081;28;20128;-72
2023/04/15 04:28:39;;;;;;;18.38;10.27;;;4.60;99.90;;;;;;5035799;28;20147;-73
2023/04/15 04:31:06;;;;;;;15.38;9.40;;;4.50;99.90;;;;;;5044521;28;20044;-72
2023/04/15 04:33:32;;;;;;;16.65;10.15;;;4.50;99.90;;;;;;5044384;28;20083;-72
2023/04/15 04:35:58;;;;;;;15.98;8.70;;;4.50;99.90;;;;;;5032455;28;20056;-71
2023/04/15 04:38:24;;;;;;;17.02;9.98;;;4.50;99.90;;;;;;5029028;28;20104;-72
2023/04/15 04:40:50;;;;;;;16.48;9.68;;;4.50;99.90;;;;;;5041329;28;20152;-73
2023/04/15 04:43:15;;;;;;;18.77;9.73;;;4.40;99.90;;;;;;5009420;28;20057;-72
2023/04/15 04:45:41;;;;;;;19.52;9.38;;;4.40;99.90;;;;;;5032597;28;20037;-72
2023/04/15 04:48:09;;;;;;;17.27;10.02;;;4.40;99.90;;;;;;5043763;28;20073;-73
2023/04/15 04:50:35;;;;;;;16.50;9.68;;;4.40;99.90;;;;;;5048951;28;20039;-72
2023/04/15 04:53:01;;;;;;;13.77;9.45;;;4.40;99.90;;;;;;5041750;28;20036;-72
2023/04/15 04:55:28;;;;;;;16.52;9.48;;;4.40;99.90;;;;;;5033347;28;20053;-72
2023/04/15 04:57:54;;;;;;;15.32;9.05;;;4.30;99.90;;;;;;5020145;28;20123;-72
2023/04/15 05:00:20;;;;;;;17.10;10.13;;;4.40;99.90;;;;;;5013254;28;20470;-72
2023/04/15 05:02:46;;;;;;;15.98;9.05;;;4.30;99.90;;;;;;5042730;28;20508;-73
2023/04/15 05:05:12;;;;;;;15.23;9.38;;;4.30;99.90;;;;;;5015872;28;20076;-72
2023/04/15 05:07:38;;;;;;;16.48;9.95;;;4.50;99.90;;;;;;5031594;28;20037;-72
2023/04/15 05:10:05;;;;;;;16.08;9.88;;;4.20;99.90;;;;;;5029371;28;20037;-73
2023/04/15 05:12:33;;;;;;;17.55;9.13;;;4.20;99.90;;;;;;5030299;28;20044;-72
2023/04/15 05:14:59;;;;;;;16.08;9.50;;;4.20;99.90;;;;;;5022116;28;20041;-72
2023/04/15 05:17:25;;;;;;;17.05;8.60;;;4.20;99.90;;;;;;5026496;28;20047;-72
2023/04/15 05:19:50;;;;;;;16.17;10.00;;;4.20;99.90;;;;;;5041834;28;20045;-72
2023/04/15 05:22:16;;;;;;;16.25;9.98;;;4.30;99.90;;;;;;5028028;28;20573;-73
2023/04/15 05:24:42;;;;;;;16.05;9.15;;;4.30;99.90;;;;;;5039524;28;20029;-72
2023/04/15 05:27:09;;;;;;;15.68;9.05;;;4.50;99.90;;;;;;5045253;28;20049;-73
2023/04/15 05:29:35;;;;;;;15.80;9.40;;;4.70;99.90;;;;;;5027746;28;20124;-72
2023/04/15 05:32:01;;;;;;;15.27;9.32;;;5.00;99.90;;;;;;5028700;28;20762;-72
2023/04/15 05:34:26;;;;;;;16.42;8.63;;;5.10;99.90;;;;;;5031827;28;20119;-72
2023/04/15 05:36:52;;;;;;;14.10;8.80;;;5.10;99.90;;;;;;5030911;28;20056;-72
2023/04/15 05:39:18;;;;;;;14.30;8.55;;;5.10;99.90;;;;;;5043106;28;20048;-71
2023/04/15 05:41:44;;;;;;;13.93;8.68;;;5.10;99.90;;;;;;5029924;28;20056;-71
2023/04/15 05:44:09;;;;;;;16.52;9.43;;;5.10;99.90;;;;;;5042345;28;20053;-71
2023/04/15 05:46:35;;;;;;;14.77;8.63;;;5.10;99.90;;;;;;5041514;28;20047;-71
2023/04/15 05:49:01;;;;;;;15.63;9.00;;;5.10;99.90;;;;;;5046845;28;20760;-71
2023/04/15 05:51:27;;;;;;;17.33;9.55;;;5.20;99.90;;;;;;5042940;28;20029;-71
2023/04/15 05:53:53;;;;;;;15.85;9.73;;;5.20;99.90;;;;;;5026603;28;20155;-71
2023/04/15 05:56:19;;;;;;;15.32;8.98;;;5.20;99.90;;;;;;5042459;28;20052;-71
2023/04/15 05:58:45;;;;;;;17.40;9.65;;;5.20;99.90;;;;;;5027668;28;20049;-73
2023/04/15 06:01:11;;;;;;;14.77;9.32;;;5.30;99.90;;;;;;5042299;28;20398;-71
2023/04/15 06:03:37;;;;;;;17.17;8.80;;;5.20;99.90;;;;;;5044188;28;20049;-71
2023/04/15 06:06:03;;;;;;;17.20;9.45;;;5.30;99.90;;;;;;5049463;28;20049;-71
2023/04/15 06:08:29;;;;;;;15.98;8.73;;;5.30;99.90;;;;;;5042433;28;20045;-73
2023/04/15 06:10:55;;;;;;;14.80;8.90;;;5.90;99.90;;;;;;5032790;28;20057;-73
2023/04/15 06:13:20;;;;;;;15.63;9.70;;;5.40;99.90;;;;;;5041031;28;20037;-72
2023/04/15 06:15:46;;;;;;;17.83;9.23;;;5.40;99.90;;;;;;5044220;28;20049;-72
2023/04/15 06:18:12;;;;;;;16.70;9.70;;;5.40;99.90;;;;;;5047138;28;20707;-73
2023/04/15 06:20:38;;;;;;;16.20;9.18;;;5.50;99.90;;;;;;5024748;28;20037;-72
2023/04/15 06:23:03;;;;;;;18.65;10.57;;;5.60;99.90;;;;;;5032208;28;20041;-71
2023/04/15 06:25:29;;;;;;;20.65;11.00;;;5.60;99.90;;;;;;5032693;28;20053;-72
2023/04/15 06:27:55;;;;;;;16.65;10.38;;;5.70;99.90;;;;;;5034303;28;20445;-73
2023/04/15 06:30:20;;;;;;;18.33;11.35;;;5.80;99.90;;;;;;5042646;28;20041;-72
2023/04/15 06:32:46;;;;;;;21.25;11.65;;;5.80;99.90;;;;;;5024624;28;20144;-72
2023/04/15 06:35:12;;;;;;;18.83;11.55;;;6.00;99.90;;;;;;5044356;28;20041;-72
2023/04/15 06:37:37;;;;;;;15.95;10.18;;;6.00;99.90;;;;;;5031897;28;20400;-72
2023/04/15 06:40:04;;;;;;;15.50;9.95;;;6.10;99.90;;;;;;5036340;28;20056;-72
2023/04/15 06:42:30;;;;;;;17.30;10.40;;;6.20;99.90;;;;;;5051065;28;20095;-72
2023/04/15 06:44:56;;;;;;;19.08;10.98;;;6.30;99.90;;;;;;5032739;28;20045;-73
2023/04/15 06:47:21;;;;;;;21.23;11.60;;;6.30;99.90;;;;;;5014021;28;20071;-73
2023/04/15 06:49:47;;;;;;;19.23;11.65;;;6.40;99.90;;;;;;5025605;28;20045;-73
2023/04/15 06:52:13;;;;;;;22.80;11.63;;;6.50;99.90;;;;;;5042827;28;20561;-73
2023/04/15 06:54:39;;;;;;;20.08;12.52;;;6.60;99.90;;;;;;5047444;28;20041;-73
2023/04/15 06:57:05;;;;;;;21.80;12.50;;;6.70;99.90;;;;;;5015049;28;20075;-72
2023/04/15 06:59:34;;;;;;;19.00;11.45;;;6.80;99.90;;;;;;5036159;28;20037;-73
2023/04/15 07:02:00;;;;;;;22.17;12.25;;;7.00;99.90;;;;;;5046740;28;20178;-72
2023/04/15 07:04:26;;;;;;;19.13;11.38;;;7.10;99.90;;;;;;5041190;28;20044;-72
2023/04/15 07:06:54;;;;;;;20.83;11.70;;;7.20;99.90;;;;;;5039836;28;20657;-73
2023/04/15 07:09:21;;;;;;;16.00;10.00;;;7.30;99.90;;;;;;5032336;28;20045;-73
2023/04/15 07:11:47;;;;;;;15.63;9.25;;;7.50;99.90;;;;;;5017646;28;20048;-73
2023/04/15 07:14:13;;;;;;;16.52;9.40;;;7.60;99.90;;;;;;5033046;28;20056;-73
2023/04/15 07:16:42;;;;;;;17.67;9.98;;;7.70;99.90;;;;;;5024748;28;20950;-73
2023/04/15 07:19:07;;;;;;;16.63;9.35;;;7.70;99.90;;;;;;5021300;28;20045;-74
2023/04/15 07:21:33;;;;;;;16.25;8.27;;;7.80;99.90;;;;;;5023153;28;20057;-74
2023/04/15 07:23:59;;;;;;;14.88;8.93;;;7.90;99.90;;;;;;5033444;28;20069;-74
2023/04/15 07:26:24;;;;;;;17.40;8.75;;;7.90;99.90;;;;;;5030601;28;20056;-75
2023/04/15 07:28:50;;;;;;;12.23;7.55;;;8.00;99.90;;;;;;5027607;28;20046;-74
2023/04/15 07:31:16;;;;;;;14.15;7.78;;;8.00;99.90;;;;;;5040163;28;20060;-74
2023/04/15 07:33:42;;;;;;;13.75;7.45;;;8.10;99.90;;;;;;5025645;28;20051;-72
2023/04/15 07:36:08;;;;;;;12.65;7.07;;;8.10;99.90;;;;;;5034388;28;20037;-73
2023/04/15 07:38:33;;;;;;;12.75;7.03;;;8.20;99.90;;;;;;5025804;28;20045;-72
2023/04/15 07:40:59;;;;;;;14.13;6.82;;;8.20;99.90;;;;;;5026638;28;20356;-73
2023/04/15 07:43:25;;;;;;;12.20;6.80;;;8.30;99.90;;;;;;5014497;28;20068;-74
2023/04/15 07:45:51;;;;;;;12.20;6.93;;;8.30;99.90;;;;;;5040711;28;20048;-73
2023/04/15 07:48:17;;;;;;;17.38;7.30;;;8.30;99.90;;;;;;5035972;28;20048;-72
2023/04/15 07:50:43;;;;;;;13.23;7.20;;;8.40;99.90;;;;;;5030886;28;20045;-72
2023/04/15 07:53:08;;;;;;;13.20;6.00;;;8.50;99.90;;;;;;5053199;28;20560;-73
2023/04/15 07:55:34;;;;;;;12.80;7.20;;;8.50;99.90;;;;;;5010465;28;20097;-73
2023/04/15 07:58:00;;;;;;;11.98;7.13;;;8.50;99.90;;;;;;5019311;28;20048;-73
2023/04/15 08:00:25;;;;;;;15.55;7.28;;;8.50;99.90;;;;;;5045573;28;20072;-74
2023/04/15 08:02:52;;;;;;;16.25;7.20;;;8.50;99.90;;;;;;5032076;28;20054;-73
2023/04/15 08:05:18;;;;;;;14.10;7.03;;;8.50;99.90;;;;;;5045329;28;20048;-74
2023/04/15 08:07:44;;;;;;;15.50;7.57;;;8.50;99.90;;;;;;5030812;28;20093;-75
2023/04/15 08:10:10;;;;;;;14.57;6.45;;;8.60;99.90;;;;;;5037573;28;20060;-74
2023/04/15 08:12:36;;;;;;;13.13;6.50;;;8.60;99.90;;;;;;5049235;28;20042;-72
2023/04/15 08:15:03;;;;;;;11.77;6.13;;;8.60;99.90;;;;;;5039785;28;20529;-72
2023/04/15 08:17:29;;;;;;;13.77;6.10;;;8.60;99.90;;;;;;5040398;28;20071;-71
2023/04/15 08:19:54;;;;;;;12.35;5.55;;;8.50;99.90;;;;;;5025095;28;20049;-69
2023/04/15 08:22:20;;;;;;;11.55;5.57;;;8.50;99.90;;;;;;5036053;28;20128;-71
2023/04/15 08:24:46;;;;;;;14.80;5.75;;;8.50;99.90;;;;;;5024300;28;20057;-70
2023/04/15 08:27:12;;;;;;;13.57;6.15;;;8.50;99.90;;;;;;5025281;28;20139;-70
2023/04/15 08:29:38;;;;;;;11.60;5.38;;;8.40;99.90;;;;;;5036529;28;20120;-70
2023/04/15 08:32:04;;;;;;;14.55;5.95;;;8.40;99.90;;;;;;5031947;28;20958;-70
2023/04/15 08:34:30;;;;;;;13.65;5.45;;;8.40;99.90;;;;;;5015682;28;20596;-71
2023/04/15 08:36:55;;;;;;;11.48;5.28;;;8.60;99.90;;;;;;5008437;28;20044;-70
2023/04/15 08:39:21;;;;;;;10.52;4.80;;;8.30;99.90;;;;;;5011671;28;20042;-71
2023/04/15 08:42:04;;;;;;;11.35;4.32;;;8.30;99.90;;;;;;5022411;28;20091;-71
2023/04/15 08:44:33;;;;;;;10.85;4.70;;;8.40;99.90;;;;;;5027412;28;20053;-71
2023/04/15 08:47:06;;;;;;;8.80;3.70;;;8.30;99.90;;;;;;5020575;28;20127;-72
2023/04/15 08:49:32;;;;;;;8.60;4.22;;;8.30;99.90;;;;;;5003095;28;20882;-71
2023/04/15 08:51:59;;;;;;;9.93;4.05;;;8.30;99.90;;;;;;5013920;28;20053;-71
2023/04/15 08:54:26;;;;;;;9.35;3.67;;;8.40;99.90;;;;;;5024918;28;20048;-71
2023/04/15 08:56:52;;;;;;;7.53;3.28;;;8.40;99.90;;;;;;5008737;28;20088;-70
2023/04/15 08:59:20;;;;;;;9.82;3.83;;;8.30;99.90;;;;;;5028588;28;20057;-71
2023/04/15 09:01:47;;;;;;;7.25;3.63;;;8.50;99.90;;;;;;5010493;28;20049;-72
2023/04/15 09:04:13;;;;;;;8.82;2.92;;;8.60;99.90;;;;;;5046404;28;20045;-71
2023/04/15 09:06:40;;;;;;;9.68;3.50;;;8.60;99.90;;;;;;5028241;28;20090;-72
2023/04/15 09:09:06;;;;;;;9.38;3.80;;;8.50;99.90;;;;;;5027216;28;20697;-75
2023/04/15 09:11:35;;;;;;;7.50;2.97;;;8.60;99.90;;;;;;5039041;28;20040;-74
2023/04/15 09:14:01;;;;;;;10.80;3.20;;;8.50;99.90;;;;;;5022651;28;20041;-75
2023/04/15 09:16:27;;;;;;;9.98;3.50;;;8.50;99.90;;;;;;5031694;28;20586;-74
2023/04/15 09:18:53;;;;;;;9.25;3.28;;;8.40;99.90;;;;;;5011830;28;20049;-74
2023/04/15 09:21:20;;;;;;;8.23;3.47;;;8.40;99.90;;;;;;5036583;28;20046;-74
2023/04/15 09:23:59;;;;;;;8.95;3.10;;;8.40;99.90;;;;;;5034100;28;20055;-74
2023/04/15 09:26:35;;;;;;;9.68;3.70;;;8.40;99.90;;;;;;5012892;28;20126;-75
2023/04/15 09:29:06;;;;;;;11.93;3.05;;;8.40;99.90;;;;;;5026646;28;20378;-74
2023/04/15 09:31:32;;;;;;;10.80;3.08;;;8.50;99.90;;;;;;5023929;28;20075;-75
2023/04/15 09:33:58;;;;;;;6.97;2.70;;;8.50;99.90;;;;;;5029927;28;20118;-75
2023/04/15 09:36:24;;;;;;;8.65;2.30;;;8.60;99.90;;;;;;5022621;28;21665;-76
2023/04/15 09:38:58;;;;;;;9.68;2.10;;;8.60;99.90;;;;;;5043359;28;20126;-74
2023/04/15 09:41:25;;;;;;;5.65;2.00;;;8.70;99.90;;;;;;5013146;28;20764;-75
2023/04/15 09:43:50;;;;;;;9.80;2.33;;;8.80;99.90;;;;;;5018823;28;20411;-76
2023/04/15 09:46:16;;;;;;;6.07;1.63;;;8.80;99.90;;;;;;5003633;28;20045;-75
2023/04/15 09:48:42;;;;;;;4.88;1.70;;;9.10;99.90;;;;;;5021736;28;20073;-75
2023/04/15 09:51:08;;;;;;;4.20;1.40;;;8.80;99.90;;;;;;5022026;28;20108;-75
2023/04/15 09:53:37;;;;;;;4.68;1.40;;;8.90;99.90;;;;;;5023463;28;20542;-75
2023/04/15 09:56:06;;;;;;;4.25;1.55;;;9.00;99.90;;;;;;4997008;28;20049;-76
2023/04/15 09:58:33;;;;;;;3.97;1.38;;;9.00;99.90;;;;;;5010315;28;20053;-76
2023/04/15 10:01:02;;;;;;;5.22;1.40;;;9.00;99.90;;;;;;5027881;28;20045;-75
2023/04/15 10:03:29;;;;;;;5.00;1.50;;;9.10;99.90;;;;;;5020239;28;20046;-75
2023/04/15 10:05:57;;;;;;;5.53;1.30;;;9.10;99.90;;;;;;5016755;28;20049;-75
2023/04/15 10:08:26;;;;;;;4.22;1.30;;;9.10;99.90;;;;;;5019918;28;20041;-75
2023/04/15 10:10:52;;;;;;;3.95;1.33;;;9.10;99.90;;;;;;4994809;28;20054;-74
2023/04/15 10:13:23;;;;;;;7.30;1.80;;;9.10;99.90;;;;;;5017143;28;20120;-74
2023/04/15 10:15:59;;;;;;;5.78;1.60;;;9.10;99.90;;;;;;5019458;28;20042;-74
2023/04/15 10:18:27;;;;;;;5.50;1.38;;;9.10;99.90;;;;;;4998694;28;20096;-74
2023/04/15 10:20:53;;;;;;;4.13;1.77;;;9.10;99.90;;;;;;5013712;28;20584;-75
2023/04/15 10:23:20;;;;;;;4.05;1.45;;;9.10;99.90;;;;;;5023984;28;20037;-74
2023/04/15 10:25:47;;;;;;;5.47;2.08;;;9.10;99.90;;;;;;5020854;28;20045;-74
2023/04/15 10:28:15;;;;;;;5.13;1.60;;;9.10;99.90;;;;;;5027419;28;20391;-77
2023/04/15 10:30:42;;;;;;;18.15;2.45;;;9.10;99.90;;;;;;5001932;28;20041;-74
2023/04/15 10:33:08;;;;;;;6.75;1.98;;;9.10;99.90;;;;;;5017785;28;20442;-75
2023/04/15 10:35:35;;;;;;;5.13;1.25;;;9.10;99.90;;;;;;4999307;28;20104;-75
2023/04/15 10:38:01;;;;;;;3.03;1.50;;;9.20;99.90;;;;;;5017594;28;20051;-74
2023/04/15 10:40:30;;;;;;;7.22;1.88;;;9.10;99.90;;;;;;5015749;28;20310;-75
2023/04/15 10:43:00;;;;;;;5.93;1.60;;;9.10;99.90;;;;;;5019200;28;20038;-75
2023/04/15 10:45:30;;;;;;;5.85;1.60;;;9.20;99.90;;;;;;5007248;28;20045;-74
2023/04/15 10:48:00;;;;;;;8.43;1.77;;;9.10;99.90;;;;;;5021865;28;20049;-75
2023/04/15 10:50:27;;;;;;;4.55;2.08;;;9.10;99.90;;;;;;5019636;28;20057;-75
2023/04/15 10:52:53;;;;;;;6.78;2.00;;;9.40;99.90;;;;;;5020288;28;20132;-74
2023/04/15 10:55:24;;;;;;;5.25;1.60;;;9.10;99.90;;;;;;5025115;28;20147;-74
2023/04/15 10:57:54;;;;;;;5.22;1.50;;;9.10;99.90;;;;;;5022233;28;20053;-74
2023/04/15 11:00:24;;;;;;;6.60;1.73;;;9.10;99.90;;;;;;5004216;28;20388;-76
2023/04/15 11:02:55;;;;;;;6.45;2.03;;;9.10;99.90;;;;;;5023167;28;20435;-75
2023/04/15 11:05:42;;;;;;;6.40;1.63;;;9.20;99.90;;;;;;5024261;28;20056;-74
2023/04/15 11:08:09;;;;;;;8.65;1.80;;;9.20;99.90;;;;;;5015970;28;20140;-75
2023/04/15 11:10:34;;;;;;;5.03;1.60;;;9.20;99.90;;;;;;5019369;28;20525;-75
2023/04/15 11:13:14;;;;;;;7.15;2.25;;;9.20;99.90;;;;;;5004520;28;20045;-74
2023/04/15 11:15:41;;;;;;;6.22;1.90;;;9.30;99.90;;;;;;5025518;28;20160;-75
2023/04/15 11:18:15;;;;;;;5.45;2.00;;;9.30;99.90;;;;;;5029716;28;20126;-74
2023/04/15 11:20:44;;;;;;;9.38;2.25;;;9.30;99.90;;;;;;5022942;28;20154;-76
2023/04/15 11:23:09;;;;;;;5.40;1.73;;;9.30;99.90;;;;;;5015372;28;20145;-75
2023/04/15 11:25:36;;;;;;;7.07;1.90;;;9.50;99.90;;;;;;5024387;28;20124;-76
2023/04/15 11:28:03;;;;;;;8.25;2.20;;;9.20;99.90;;;;;;5023094;28;20125;-74
2023/04/15 11:30:34;;;;;;;10.32;2.30;;;9.20;99.90;;;;;;5013271;28;20045;-76
2023/04/15 11:33:01;;;;;;;;;;;9.20;99.90;;;;;;5008898;28;20129;-75
2023/04/15 11:35:27;;;;;;;5.32;1.40;;;9.20;99.90;;;;;;5020518;28;19932;-75
2023/04/15 11:37:54;;;;;;;7.43;1.60;;;9.10;99.90;;;;;;5013994;28;20042;-75
2023/04/15 11:40:26;;;;;;;10.85;2.10;;;9.10;99.90;;;;;;5033822;28;20193;-75
2023/04/15 11:43:10;;;;;;;;;;;9.20;99.90;;;;;;5031926;28;20119;-76
2023/04/15 11:45:46;;;;;;;6.68;1.77;;;9.20;99.90;;;;;;5029901;28;19928;-75
2023/04/15 11:48:12;;;;;;;9.80;2.33;;;9.20;99.90;;;;;;5031687;28;20170;-75
2023/04/15 11:50:40;;;;;;;6.28;1.70;;;9.20;99.90;;;;;;5023839;28;20048;-75
2023/04/15 11:53:07;;;;;;;7.53;1.52;;;9.20;99.90;;;;;;5027098;28;20052;-75
2023/04/15 11:55:43;;;;;;;8.93;1.58;;;9.20;99.90;;;;;;5033213;28;20049;-75
2023/04/15 11:58:11;;;;;;;9.73;1.80;;;9.20;99.90;;;;;;5032450;28;20071;-75
2023/04/15 12:00:40;;;;;;;6.45;1.30;;;9.20;99.90;;;;;;5035422;28;20114;-75
2023/04/15 12:03:29;;;;;;;8.23;1.50;;;9.20;99.90;;;;;;5039873;28;20043;-74
2023/04/15 12:06:21;;;;;;;7.55;1.60;;;9.20;99.90;;;;;;5026560;28;20132;-75
2023/04/15 12:08:57;;;;;;;;;;;9.10;99.90;;;;;;5029686;28;20127;-74
2023/04/15 12:11:27;;;;;;;6.35;1.55;;;9.20;99.90;;;;;;5031355;28;19925;-75
2023/04/15 12:14:14;;;;;;;16.60;1.92;;;9.10;99.90;;;;;;5018845;28;20539;-75
2023/04/15 12:16:53;;;;;;;11.95;2.22;;;9.10;99.90;;;;;;5039547;28;20075;-75
2023/04/15 12:19:45;;;;;;;6.25;1.55;;;9.50;99.90;;;;;;5012030;28;20048;-74
2023/04/15 12:22:14;;;;;;;10.70;1.67;;;9.00;99.90;;;;;;5044719;28;20057;-74
2023/04/15 12:24:43;;;;;;;8.02;1.85;;;9.00;99.90;;;;;;5033666;28;20052;-75
2023/04/15 12:27:12;;;;;;;8.43;1.48;;;9.00;99.90;;;;;;5040883;28;20067;-75
2023/04/15 12:29:40;;;;;;;10.23;1.50;;;9.10;99.90;;;;;;5043945;28;20044;-76
2023/04/15 12:32:08;;;;;;;10.48;1.40;;;9.10;99.90;;;;;;5023041;28;20040;-74
2023/04/15 12:34:50;;;;;;;7.85;1.17;;;9.00;99.90;;;;;;5076833;27;20183;-73
2023/04/15 12:37:16;;;;;;;5.97;1.50;;;9.00;99.90;;;;;;5061369;28;20044;-73
2023/04/15 12:39:47;;;;;;;10.20;1.75;;;9.00;99.90;;;;;;5075304;28;20082;-77
2023/04/15 12:42:14;;;;;;;11.40;2.13;;;9.00;99.90;;;;;;5087781;28;20044;-76
2023/04/15 12:44:40;;;;;;;7.20;1.20;;;9.00;99.90;;;;;;5057414;28;20056;-76
2023/04/15 12:47:07;;;;;;;8.43;1.10;;;9.00;99.90;;;;;;5075279;28;21214;-76
2023/04/15 12:49:33;;;;;;;9.90;1.40;;;9.00;99.90;;;;;;5066774;28;20056;-77